createdAt,value
2023-05-24T00:01:02.725Z,100658.45
2023-05-24T00:03:35.264Z,100656.23
2023-05-24T00:06:07.137Z,100652.59
2023-05-24T00:08:35.131Z,100652.57
2023-05-24T00:11:03.373Z,100651.62
2023-05-24T00:13:31.357Z,100649.44
2023-05-24T00:15:59.384Z,100653.00
2023-05-24T00:18:27.418Z,100661.85
2023-05-24T00:20:57.341Z,100659.73
2023-05-24T00:23:26.088Z,100661.11
2023-05-24T00:25:54.082Z,100656.98
2023-05-24T00:28:22.329Z,100657.86
2023-05-24T00:30:51.455Z,100669.20
2023-05-24T00:33:19.665Z,100674.15
2023-05-24T00:35:47.573Z,100677.97
2023-05-24T00:38:15.693Z,100684.04
2023-05-24T00:40:43.783Z,100686.84
2023-05-24T00:43:11.891Z,100687.38
2023-05-24T00:45:39.789Z,100694.52
2023-05-24T00:48:08.569Z,100694.91
2023-05-24T00:50:38.270Z,100696.27
2023-05-24T00:53:07.879Z,100699.11
2023-05-24T00:55:36.974Z,100702.31
2023-05-24T00:58:05.131Z,100705.42
2023-05-24T01:00:33.239Z,100710.73
2023-05-24T01:03:02.619Z,100722.66
2023-05-24T01:05:30.829Z,100727.02
2023-05-24T01:08:15.896Z,100731.47
2023-05-24T01:10:59.478Z,100735.13
2023-05-24T01:13:47.874Z,100736.71
2023-05-24T01:16:26.335Z,100738.64
2023-05-24T01:19:06.063Z,100740.81
2023-05-24T01:22:19.074Z,100740.64
2023-05-24T01:25:23.578Z,100743.90
2023-05-24T01:27:52.651Z,100734.52
2023-05-24T01:30:20.779Z,100737.40
2023-05-24T01:32:50.422Z,100737.52
2023-05-24T01:35:18.525Z,100737.23
2023-05-24T01:37:46.512Z,100738.66
2023-05-24T01:40:15.532Z,100741.51
2023-05-24T01:42:56.742Z,100740.80
2023-05-24T01:46:11.096Z,100740.21
2023-05-24T01:49:02.384Z,100739.77
2023-05-24T01:51:38.472Z,100746.88
2023-05-24T01:54:07.865Z,100748.39
2023-05-24T01:56:36.705Z,100752.73
2023-05-24T01:59:07.331Z,100754.73
2023-05-24T02:01:36.159Z,100754.21
2023-05-24T02:04:04.607Z,100746.81
2023-05-24T02:06:32.473Z,100751.92
2023-05-24T02:09:00.874Z,100755.70
2023-05-24T02:11:28.907Z,100760.31
2023-05-24T02:13:56.867Z,100759.77
2023-05-24T02:16:27.027Z,100758.48
2023-05-24T02:18:55.235Z,100761.47
2023-05-24T02:21:27.341Z,100760.81
2023-05-24T02:23:55.551Z,100754.80
2023-05-24T02:26:23.499Z,100760.16
2023-05-24T02:28:51.642Z,100759.61
2023-05-24T02:31:19.829Z,100761.52
2023-05-24T02:33:48.448Z,100758.73
2023-05-24T02:36:16.908Z,100762.54
2023-05-24T02:38:44.797Z,100758.81
2023-05-24T02:41:17.980Z,100768.13
2023-05-24T02:43:46.742Z,100765.64
2023-05-24T02:46:15.368Z,100777.23
2023-05-24T02:48:43.488Z,100775.94
2023-05-24T02:51:11.530Z,100778.29
2023-05-24T02:53:39.600Z,100778.77
2023-05-24T02:56:08.111Z,100781.73
2023-05-24T02:58:40.702Z,100786.73
2023-05-24T03:01:08.803Z,100796.07
2023-05-24T03:03:37.235Z,100802.75
2023-05-24T03:06:07.366Z,100806.64
2023-05-24T03:08:37.523Z,100811.23
2023-05-24T03:11:06.403Z,100817.78
2023-05-24T03:13:35.805Z,100821.63
2023-05-24T03:16:04.163Z,100818.27
2023-05-24T03:18:32.334Z,100821.64
2023-05-24T03:21:00.321Z,100821.44
2023-05-24T03:23:28.157Z,100825.14
2023-05-24T03:25:57.293Z,100828.04
2023-05-24T03:28:25.734Z,100837.69
2023-05-24T03:30:54.745Z,100844.98
2023-05-24T03:33:22.941Z,100849.09
2023-05-24T03:35:51.680Z,100846.23
2023-05-24T03:38:19.808Z,100845.54
2023-05-24T03:40:48.263Z,100843.48
2023-05-24T03:43:19.924Z,100848.34
2023-05-24T03:45:54.693Z,100850.98
2023-05-24T03:48:22.703Z,100851.52
2023-05-24T03:50:52.338Z,100854.21
2023-05-24T03:53:23.084Z,100852.29
2023-05-24T03:55:52.183Z,100857.31
2023-05-24T03:58:20.330Z,100862.13
2023-05-24T04:00:48.323Z,100856.20
2023-05-24T04:03:16.497Z,100851.31
2023-05-24T04:05:45.610Z,100851.27
2023-05-24T04:08:15.156Z,100856.56
2023-05-24T04:10:43.690Z,100861.30
2023-05-24T04:13:13.722Z,100861.69
2023-05-24T04:15:42.160Z,100865.05
2023-05-24T04:18:12.397Z,100867.75
2023-05-24T04:20:41.551Z,100875.25
2023-05-24T04:23:10.856Z,100876.86
2023-05-24T04:25:39.010Z,100871.56
2023-05-24T04:28:07.496Z,100875.66
2023-05-24T04:30:36.945Z,100882.91
2023-05-24T04:33:05.200Z,100888.52
2023-05-24T04:35:35.705Z,100891.78
2023-05-24T04:38:03.832Z,100897.42
2023-05-24T04:40:32.292Z,100895.46
2023-05-24T04:43:00.221Z,100899.98
2023-05-24T04:45:28.222Z,100902.05
2023-05-24T04:47:56.640Z,100900.61
2023-05-24T04:50:24.536Z,100904.98
2023-05-24T04:52:52.453Z,100907.80
2023-05-24T04:55:20.481Z,100909.56
2023-05-24T04:57:48.668Z,100910.73
2023-05-24T05:00:16.976Z,100910.84
2023-05-24T05:02:45.104Z,100912.27
2023-05-24T05:05:13.456Z,100914.44
2023-05-24T05:07:41.725Z,100920.45
2023-05-24T05:10:09.816Z,100926.02
2023-05-24T05:12:37.704Z,100929.56
2023-05-24T05:15:06.586Z,100927.89
2023-05-24T05:17:35.071Z,100930.88
2023-05-24T05:20:04.294Z,100933.02
2023-05-24T05:22:32.564Z,100935.61
2023-05-24T05:25:01.282Z,100935.52
2023-05-24T05:27:29.882Z,100937.48
2023-05-24T05:29:57.772Z,100944.36
2023-05-24T05:32:25.732Z,100952.91
2023-05-24T05:34:53.653Z,100961.83
2023-05-24T05:37:21.595Z,100958.59
2023-05-24T05:39:49.457Z,100962.77
2023-05-24T05:42:17.344Z,100963.73
2023-05-24T05:44:45.253Z,100962.45
2023-05-24T05:47:13.179Z,100968.35
2023-05-24T05:49:41.357Z,100965.21
2023-05-24T05:52:09.252Z,100963.95
2023-05-24T05:54:37.126Z,100966.69
2023-05-24T05:57:05.617Z,100976.77
2023-05-24T05:59:36.377Z,100983.55
2023-05-24T06:02:05.943Z,100990.97
2023-05-24T06:04:34.225Z,100992.68
2023-05-24T06:07:02.301Z,100995.64
2023-05-24T06:09:30.213Z,100999.05
2023-05-24T06:11:58.156Z,100997.07
2023-05-24T06:14:26.193Z,100995.80
2023-05-24T06:16:55.756Z,100996.41
2023-05-24T06:19:25.136Z,100996.86
2023-05-24T06:21:53.521Z,100997.11
2023-05-24T06:24:21.587Z,100998.00
2023-05-24T06:26:53.081Z,101005.91
2023-05-24T06:29:22.169Z,101015.98
2023-05-24T06:31:50.949Z,101021.13
2023-05-24T06:34:21.656Z,101021.32
2023-05-24T06:36:51.469Z,101024.64
2023-05-24T06:39:19.692Z,101022.02
2023-05-24T06:41:48.297Z,101030.59
2023-05-24T06:44:16.625Z,101034.38
2023-05-24T06:46:45.316Z,101040.41
2023-05-24T06:49:13.536Z,101041.25
2023-05-24T06:51:41.650Z,101048.81
2023-05-24T06:54:09.664Z,101049.16
2023-05-24T06:56:37.615Z,101049.99
2023-05-24T06:59:06.200Z,101048.49
2023-05-24T07:01:34.448Z,101049.16
2023-05-24T07:04:02.462Z,101045.63
2023-05-24T07:06:30.511Z,101042.98
2023-05-24T07:08:58.641Z,101041.82
2023-05-24T07:11:27.679Z,101041.34
2023-05-24T07:13:55.849Z,101050.11
2023-05-24T07:16:24.213Z,101052.02
2023-05-24T07:18:52.066Z,101050.31
2023-05-24T07:21:20.015Z,101063.05
2023-05-24T07:23:47.867Z,101062.83
2023-05-24T07:26:16.055Z,101063.45
2023-05-24T07:28:44.034Z,101070.78
2023-05-24T07:31:12.078Z,101073.23
2023-05-24T07:33:39.983Z,101077.92
2023-05-24T07:36:08.972Z,101080.90
2023-05-24T07:38:36.990Z,101087.01
2023-05-24T07:41:07.574Z,101086.42
2023-05-24T07:43:37.756Z,101089.17
2023-05-24T07:46:05.791Z,101090.96
2023-05-24T07:48:33.782Z,101091.65
2023-05-24T07:51:01.760Z,101097.27
2023-05-24T07:53:30.070Z,101100.32
2023-05-24T07:55:57.974Z,101103.65
2023-05-24T07:58:25.940Z,101103.63
2023-05-24T08:00:54.480Z,101106.38
2023-05-24T08:03:25.315Z,101111.24
2023-05-24T08:05:53.650Z,101110.89
2023-05-24T08:08:21.581Z,101112.52
2023-05-24T08:10:49.586Z,101115.85
2023-05-24T08:13:17.562Z,101120.88
2023-05-24T08:15:45.803Z,101125.55
2023-05-24T08:18:14.150Z,101125.95
2023-05-24T08:20:42.168Z,101130.27
2023-05-24T08:23:10.321Z,101127.17
2023-05-24T08:25:38.409Z,101131.61
2023-05-24T08:28:06.654Z,101129.22
2023-05-24T08:30:35.383Z,101136.50
2023-05-24T08:33:03.354Z,101138.41
2023-05-24T08:35:31.409Z,101140.87
2023-05-24T08:37:59.278Z,101144.21
2023-05-24T08:40:27.252Z,101146.98
2023-05-24T08:42:56.653Z,101143.95
2023-05-24T08:45:26.602Z,101150.21
2023-05-24T08:47:55.792Z,101155.41
2023-05-24T08:50:23.985Z,101164.23
2023-05-24T08:52:54.516Z,101164.31
2023-05-24T08:55:22.453Z,101163.77
2023-05-24T08:57:51.536Z,101170.04
2023-05-24T09:00:20.153Z,101174.81
2023-05-24T09:02:49.692Z,101178.86
2023-05-24T09:05:21.806Z,101178.71
2023-05-24T09:07:51.286Z,101181.49
2023-05-24T09:10:21.947Z,101180.91
2023-05-24T09:12:55.952Z,101182.83
2023-05-24T09:15:24.313Z,101186.36
2023-05-24T09:17:52.396Z,101184.82
2023-05-24T09:20:21.794Z,101192.10
2023-05-24T09:22:53.510Z,101196.38
2023-05-24T09:25:21.858Z,101202.27
2023-05-24T09:27:53.906Z,101205.23
2023-05-24T09:30:22.248Z,101203.09
2023-05-24T09:32:58.671Z,101204.71
2023-05-24T09:35:28.621Z,101203.66
2023-05-24T09:38:00.879Z,101205.80
2023-05-24T09:40:29.805Z,101205.46
2023-05-24T09:43:09.979Z,101211.17
2023-05-24T09:45:46.917Z,101217.33
2023-05-24T09:48:17.505Z,101218.23
2023-05-24T09:50:57.360Z,101218.08
2023-05-24T09:53:25.364Z,101221.48
2023-05-24T09:55:55.098Z,101230.43
2023-05-24T09:58:23.193Z,101224.23
2023-05-24T10:00:51.272Z,101232.20
2023-05-24T10:03:19.589Z,101237.59
2023-05-24T10:05:48.516Z,101237.69
2023-05-24T10:08:18.764Z,101246.15
2023-05-24T10:10:47.066Z,101239.94
2023-05-24T10:13:17.869Z,101244.26
2023-05-24T10:15:46.116Z,101241.02
2023-05-24T10:18:14.826Z,101236.18
2023-05-24T10:20:43.901Z,101239.13
2023-05-24T10:23:20.206Z,101240.95
2023-05-24T10:25:56.665Z,101244.25
2023-05-24T10:28:26.153Z,101241.57
2023-05-24T10:31:17.521Z,101243.71
2023-05-24T10:33:48.575Z,101238.80
2023-05-24T10:36:18.918Z,101244.14
2023-05-24T10:38:47.503Z,101249.30
2023-05-24T10:41:15.621Z,101247.07
2023-05-24T10:43:53.756Z,101248.42
2023-05-24T10:46:29.331Z,101250.67
2023-05-24T10:49:01.887Z,101254.60
2023-05-24T10:51:39.636Z,101253.38
2023-05-24T10:54:19.027Z,101251.95
2023-05-24T10:56:49.860Z,101246.20
2023-05-24T10:59:30.298Z,101252.34
2023-05-24T11:02:00.996Z,101250.91
2023-05-24T11:04:43.201Z,101249.55
2023-05-24T11:07:11.747Z,101250.27
2023-05-24T11:09:46.939Z,101241.27
2023-05-24T11:12:17.996Z,101246.03
2023-05-24T11:14:52.451Z,101247.38
2023-05-24T11:17:22.801Z,101250.34
2023-05-24T11:19:53.978Z,101255.41
2023-05-24T11:22:25.675Z,101252.81
2023-05-24T11:24:53.870Z,101255.68
2023-05-24T11:27:22.395Z,101251.73
2023-05-24T11:29:50.566Z,101253.20
2023-05-24T11:32:20.698Z,101250.42
2023-05-24T11:34:49.806Z,101254.82
2023-05-24T11:37:18.821Z,101256.30
2023-05-24T11:39:54.291Z,101248.13
2023-05-24T11:42:23.611Z,101250.77
2023-05-24T11:44:54.007Z,101253.73
2023-05-24T11:47:25.215Z,101253.42
2023-05-24T11:49:53.114Z,101252.98
2023-05-24T11:52:22.323Z,101255.75
2023-05-24T11:54:51.327Z,101257.61
2023-05-24T11:57:26.998Z,101255.06
2023-05-24T11:59:57.060Z,101253.15
2023-05-24T12:02:25.089Z,101252.80
2023-05-24T12:04:54.289Z,101253.14
2023-05-24T12:07:24.021Z,101257.55
2023-05-24T12:09:52.280Z,101260.70
2023-05-24T12:12:27.079Z,101268.15
2023-05-24T12:15:01.985Z,101267.53
2023-05-24T12:17:29.938Z,101270.61
2023-05-24T12:19:57.776Z,101267.14
2023-05-24T12:22:31.972Z,101269.76
2023-05-24T12:25:00.171Z,101269.61
2023-05-24T12:27:30.962Z,101270.50
2023-05-24T12:30:06.498Z,101273.43
2023-05-24T12:32:34.622Z,101268.98
2023-05-24T12:35:04.472Z,101270.08
2023-05-24T12:37:32.576Z,101270.66
2023-05-24T12:40:01.695Z,101269.02
2023-05-24T12:42:29.763Z,101271.20
2023-05-24T12:44:57.760Z,101270.37
2023-05-24T12:47:26.178Z,101269.85
2023-05-24T12:49:54.379Z,101272.24
2023-05-24T12:52:22.921Z,101265.95
2023-05-24T12:54:52.719Z,101268.17
2023-05-24T12:57:20.832Z,101263.61
2023-05-24T12:59:49.113Z,101264.58
2023-05-24T13:02:17.351Z,101271.11
2023-05-24T13:04:45.333Z,101274.11
2023-05-24T13:07:13.493Z,101281.52
2023-05-24T13:09:41.630Z,101284.15
2023-05-24T13:12:10.749Z,101286.75
2023-05-24T13:14:38.788Z,101289.08
2023-05-24T13:17:07.720Z,101290.35
2023-05-24T13:19:35.909Z,101292.73
2023-05-24T13:22:04.356Z,101289.00
2023-05-24T13:24:32.383Z,101285.33
2023-05-24T13:27:00.309Z,101282.30
2023-05-24T13:29:39.422Z,101284.11
2023-05-24T13:32:10.895Z,101285.26
2023-05-24T13:34:39.522Z,101283.54
2023-05-24T13:37:08.076Z,101289.92
2023-05-24T13:39:36.789Z,101294.08
2023-05-24T13:42:05.266Z,101299.04
2023-05-24T13:44:33.302Z,101298.63
2023-05-24T13:47:02.464Z,101300.70
2023-05-24T13:49:30.567Z,101298.98
2023-05-24T13:51:58.779Z,101304.45
2023-05-24T13:54:27.882Z,101303.21
2023-05-24T13:56:57.683Z,101306.95
2023-05-24T13:59:27.365Z,101307.70
2023-05-24T14:01:55.689Z,101309.35
2023-05-24T14:04:23.694Z,101304.92
2023-05-24T14:06:51.643Z,101304.12
2023-05-24T14:09:21.410Z,101304.17
2023-05-24T14:11:49.479Z,101306.32
2023-05-24T14:16:51.927Z,101301.96
2023-05-24T14:19:20.095Z,101304.50
2023-05-24T14:21:48.245Z,101304.92
2023-05-24T14:24:16.545Z,101305.09
2023-05-24T14:26:44.831Z,101302.73
2023-05-24T14:29:13.135Z,101305.80
2023-05-24T14:31:44.226Z,101313.88
2023-05-24T14:34:12.564Z,101313.79
2023-05-24T14:36:42.035Z,101317.11
2023-05-24T14:39:10.326Z,101319.67
2023-05-24T14:41:38.385Z,101323.42
2023-05-24T14:44:06.892Z,101318.75
2023-05-24T14:46:34.952Z,101317.39
2023-05-24T14:49:04.676Z,101319.25
2023-05-24T14:51:32.751Z,101318.90
2023-05-24T14:54:00.880Z,101315.45
2023-05-24T14:56:29.204Z,101315.46
2023-05-24T14:58:58.806Z,101318.65
2023-05-24T15:01:27.050Z,101314.80
2023-05-24T15:03:55.605Z,101312.20
2023-05-24T15:06:23.675Z,101313.45
2023-05-24T15:08:52.337Z,101311.20
2023-05-24T15:11:20.779Z,101308.83
2023-05-24T15:13:48.987Z,101311.58
2023-05-24T15:16:17.099Z,101306.17
2023-05-24T15:18:45.013Z,101308.36
2023-05-24T15:21:13.100Z,101311.27
2023-05-24T15:23:41.667Z,101314.38
2023-05-24T15:26:09.816Z,101312.59
2023-05-24T15:28:37.866Z,101313.67
2023-05-24T15:31:06.401Z,101313.75
2023-05-24T15:33:36.567Z,101315.91
2023-05-24T15:36:05.146Z,101317.84
2023-05-24T15:38:34.563Z,101319.21
2023-05-24T15:41:03.962Z,101316.80
2023-05-24T15:43:31.864Z,101318.83
2023-05-24T15:45:59.975Z,101316.65
2023-05-24T15:48:28.191Z,101320.25
2023-05-24T15:51:25.614Z,101317.36
2023-05-24T15:53:44.379Z,101317.23
2023-05-24T15:56:12.996Z,101314.67
2023-05-24T15:58:41.248Z,101316.69
2023-05-24T16:01:09.620Z,101315.36
2023-05-24T16:03:38.256Z,101315.29
2023-05-24T16:06:07.142Z,101313.85
2023-05-24T16:08:34.996Z,101313.18
2023-05-24T16:11:08.197Z,101317.55
2023-05-24T16:13:36.371Z,101319.39
2023-05-24T16:16:04.563Z,101317.40
2023-05-24T16:18:34.826Z,101318.84
2023-05-24T16:21:02.868Z,101317.30
2023-05-24T16:23:30.984Z,101319.44
2023-05-24T16:25:59.181Z,101319.64
2023-05-24T16:28:27.380Z,101320.92
2023-05-24T16:30:56.548Z,101321.33
2023-05-24T16:33:25.437Z,101325.30
2023-05-24T16:35:57.824Z,101327.95
2023-05-24T16:38:27.050Z,101332.51
2023-05-24T16:40:55.376Z,101339.67
2023-05-24T16:43:23.847Z,101342.08
2023-05-24T16:45:52.055Z,101342.54
2023-05-24T16:48:21.921Z,101341.73
2023-05-24T16:50:51.732Z,101336.02
2023-05-24T16:53:23.148Z,101342.89
2023-05-24T16:55:54.168Z,101339.12
2023-05-24T16:58:23.846Z,101341.20
2023-05-24T17:00:54.515Z,101340.99
2023-05-24T17:03:28.403Z,101340.61
2023-05-24T17:06:03.414Z,101342.55
2023-05-24T17:08:35.761Z,101347.19
2023-05-24T17:11:05.300Z,101350.52
2023-05-24T17:13:33.629Z,101347.98
2023-05-24T17:16:03.764Z,101347.73
2023-05-24T17:18:31.954Z,101345.52
2023-05-24T17:21:02.223Z,101349.00
2023-05-24T17:23:33.413Z,101351.80
2023-05-24T17:26:03.341Z,101350.12
2023-05-24T17:28:31.664Z,101356.59
2023-05-24T17:31:01.546Z,101359.45
2023-05-24T17:33:30.815Z,101364.61
2023-05-24T17:36:06.342Z,101366.95
2023-05-24T17:38:34.577Z,101368.83
2023-05-24T17:41:03.092Z,101370.34
2023-05-24T17:43:32.937Z,101374.39
2023-05-24T17:46:04.212Z,101371.05
2023-05-24T17:48:33.990Z,101375.64
2023-05-24T17:51:05.255Z,101373.51
2023-05-24T17:53:35.605Z,101378.63
2023-05-24T17:56:05.697Z,101374.96
2023-05-24T17:58:36.853Z,101370.84
2023-05-24T18:01:07.313Z,101372.50
2023-05-24T18:03:37.130Z,101374.26
2023-05-24T18:06:07.474Z,101379.88
2023-05-24T18:08:38.538Z,101383.29
2023-05-24T18:11:10.450Z,101387.20
2023-05-24T18:13:40.357Z,101380.77
2023-05-24T18:16:11.166Z,101378.66
2023-05-24T18:18:39.688Z,101381.36
2023-05-24T18:21:09.680Z,101388.95
2023-05-24T18:23:38.409Z,101392.06
2023-05-24T18:26:11.370Z,101395.34
2023-05-24T18:28:42.177Z,101397.20
2023-05-24T18:31:11.025Z,101397.59
2023-05-24T18:33:39.465Z,101401.33
2023-05-24T18:36:07.999Z,101398.39
2023-05-24T18:38:37.391Z,101404.17
2023-05-24T18:41:09.710Z,101410.80
2023-05-24T18:43:38.276Z,101417.77
2023-05-24T18:46:06.607Z,101422.84
2023-05-24T18:48:35.010Z,101428.51
2023-05-24T18:51:03.361Z,101430.83
2023-05-24T18:53:35.446Z,101426.91
2023-05-24T18:56:03.553Z,101431.94
2023-05-24T18:58:33.304Z,101429.23
2023-05-24T19:01:01.297Z,101433.11
2023-05-24T19:03:30.193Z,101434.91
2023-05-24T19:05:59.837Z,101436.73
2023-05-24T19:08:28.151Z,101443.48
2023-05-24T19:10:58.479Z,101447.25
2023-05-24T19:13:27.686Z,101445.73
2023-05-24T19:15:57.644Z,101446.90
2023-05-24T19:18:27.781Z,101448.16
2023-05-24T19:20:56.332Z,101456.23
2023-05-24T19:23:24.729Z,101452.79
2023-05-24T19:25:52.891Z,101455.48
2023-05-24T19:28:21.007Z,101455.98
2023-05-24T19:30:49.424Z,101459.69
2023-05-24T19:33:19.218Z,101457.79
2023-05-24T19:35:47.193Z,101458.26
2023-05-24T19:38:18.038Z,101459.64
2023-05-24T19:40:48.480Z,101459.38
2023-05-24T19:43:18.026Z,101459.33
2023-05-24T19:45:46.235Z,101455.39
2023-05-24T19:48:15.908Z,101458.59
2023-05-24T19:50:45.491Z,101456.88
2023-05-24T19:53:15.901Z,101458.73
2023-05-24T19:55:44.030Z,101457.73
2023-05-24T19:58:12.659Z,101463.80
2023-05-24T20:00:41.315Z,101462.14
2023-05-24T20:03:11.427Z,101463.81
2023-05-24T20:05:41.302Z,101465.80
2023-05-24T20:08:09.738Z,101466.19
2023-05-24T20:10:40.218Z,101467.96
2023-05-24T20:13:08.741Z,101466.81
2023-05-24T20:15:38.407Z,101463.52
2023-05-24T20:18:06.753Z,101460.64
2023-05-24T20:20:35.713Z,101456.02
2023-05-24T20:23:05.151Z,101457.52
2023-05-24T20:25:36.526Z,101453.20
2023-05-24T20:28:12.781Z,101454.47
2023-05-24T20:30:47.017Z,101450.56
2023-05-24T20:33:15.360Z,101450.13
2023-05-24T20:35:43.905Z,101450.20
2023-05-24T20:38:13.406Z,101455.77
2023-05-24T20:40:43.050Z,101457.50
2023-05-24T20:43:11.321Z,101456.29
2023-05-24T20:45:39.541Z,101452.57
2023-05-24T20:48:07.780Z,101453.16
2023-05-24T20:50:35.806Z,101453.96
2023-05-24T20:53:03.750Z,101457.29
2023-05-24T20:55:31.760Z,101457.73
2023-05-24T20:57:59.699Z,101462.35
2023-05-24T21:00:27.676Z,101462.45
2023-05-24T21:02:56.089Z,101459.62
2023-05-24T21:05:24.376Z,101462.77
2023-05-24T21:07:52.377Z,101458.93
2023-05-24T21:10:20.633Z,101459.92
2023-05-24T21:12:48.884Z,101464.33
2023-05-24T21:15:16.840Z,101468.28
2023-05-24T21:17:44.925Z,101470.92
2023-05-24T21:20:13.084Z,101480.02
2023-05-24T21:22:41.125Z,101483.93
2023-05-24T21:25:09.686Z,101489.55
2023-05-24T21:27:37.742Z,101492.50
2023-05-24T21:30:06.809Z,101490.83
2023-05-24T21:32:34.889Z,101492.73
2023-05-24T21:35:02.845Z,101494.55
2023-05-24T21:37:30.897Z,101491.69
2023-05-24T21:39:58.882Z,101488.87
2023-05-24T21:42:26.782Z,101488.27
2023-05-24T21:44:54.786Z,101485.45
2023-05-24T21:47:22.737Z,101484.22
2023-05-24T21:49:51.157Z,101484.59
2023-05-24T21:52:19.719Z,101488.98
2023-05-24T21:54:47.697Z,101490.41
2023-05-24T21:57:16.030Z,101491.02
2023-05-24T21:59:44.033Z,101490.96
2023-05-24T22:02:14.248Z,101493.85
2023-05-24T22:04:42.407Z,101497.77
2023-05-24T22:07:10.335Z,101502.63
2023-05-24T22:09:38.245Z,101505.81
2023-05-24T22:12:06.705Z,101507.06
2023-05-24T22:14:34.648Z,101513.24
2023-05-24T22:17:02.720Z,101513.85
2023-05-24T22:19:39.599Z,101509.48
2023-05-24T22:22:10.062Z,101505.03
2023-05-24T22:24:37.923Z,101502.25
2023-05-24T22:27:05.881Z,101500.54
2023-05-24T22:29:33.783Z,101500.55
2023-05-24T22:32:01.920Z,101503.48
2023-05-24T22:34:30.343Z,101507.63
2023-05-24T22:36:58.412Z,101511.13
2023-05-24T22:39:27.072Z,101513.73
2023-05-24T22:41:55.077Z,101511.30
2023-05-24T22:44:23.000Z,101502.08
2023-05-24T22:46:53.872Z,101506.45
2023-05-24T22:49:22.138Z,101506.82
2023-05-24T22:51:51.343Z,101504.42
2023-05-24T22:54:19.608Z,101502.57
2023-05-24T22:56:47.731Z,101501.71
2023-05-24T22:59:15.720Z,101498.11
2023-05-24T23:01:44.957Z,101495.98
2023-05-24T23:06:47.398Z,101494.64
2023-05-24T23:09:15.436Z,101489.86
2023-05-24T23:11:43.450Z,101488.88
2023-05-24T23:14:11.896Z,101487.56
2023-05-24T23:16:46.035Z,101487.85
2023-05-24T23:19:18.716Z,101485.45
2023-05-24T23:21:47.636Z,101484.93
2023-05-24T23:24:16.108Z,101483.93
2023-05-24T23:26:44.277Z,101485.67
2023-05-24T23:29:12.285Z,101486.08
2023-05-24T23:31:40.186Z,101485.01
2023-05-24T23:34:08.373Z,101484.08
2023-05-24T23:36:36.723Z,101485.38
2023-05-24T23:39:04.638Z,101492.66
2023-05-24T23:41:32.496Z,101489.60
2023-05-24T23:44:00.434Z,101493.42
2023-05-24T23:46:28.606Z,101494.13
2023-05-24T23:48:56.799Z,101493.59
2023-05-24T23:51:24.874Z,101495.04
2023-05-24T23:53:52.954Z,101497.64
2023-05-24T23:56:21.514Z,101497.92
2023-05-24T23:58:49.497Z,101498.23
